Pedhoulas Leader — C4SX2 — position and weather

sailwx.info

Track history (hours):
 
Tides and Currents Weather Stations Pressure Air Temp Water Temp Dewpoint Dewpoint Depression Visibility Wind Speed Wind Dir Waves Ship Positions

Pedhoulas Leader

Last reported at 2018-May-01 21:44 UTC. Time now 2018-Jul-20 08:40 UTC.
Position N 01°24' E 104°27'.
Warning: this ship's position is months out of date.

Length 222 m; draft 13.2 m.

Type: Cargo ship. MMSI: 210982000.

Date/timePositionNaut miles runAvg speedWind from/ knotsBaromVisibWave heightAir tempDewpointWater temp
2018-May-01 21:44N 01°24' E 104°27'313.4
2018-May-01 21:29N 01°22' E 104°25'713.7
2018-May-01 20:59N 01°17' E 104°19'713.2
2018-May-01 20:28N 01°16' E 104°13'714.4
2018-May-01 20:00N 01°15' E 104°06'510.8
2018-May-01 19:30N 01°16' E 104°01'1 2.6
2018-May-01 18:57N 01°17' E 103°60'0 0.0
2018-May-01 18:30N 01°17' E 103°60'0 0.1
2018-May-01 17:56N 01°17' E 103°60'0 0.3
2018-May-01 17:30N 01°17' E 103°60'0 0.3
2018-May-01 16:56N 01°17' E 103°59'0 0.1
2018-May-01 16:20N 01°17' E 103°59'0 0.2
2018-May-01 15:59N 01°17' E 103°59'0 0.1
2018-May-01 15:29N 01°17' E 103°59'0 0.0
2018-May-01 14:53N 01°17' E 103°59'0 0.0
2018-May-01 14:29N 01°17' E 103°59'0 0.0
2018-May-01 13:48N 01°17' E 103°59'0 0.1
2018-May-01 13:30N 01°17' E 103°59'0 0.0
2018-May-01 12:50N 01°17' E 103°59'0 0.0
2018-May-01 12:15N 01°17' E 103°59'0 0.0
2018-May-01 11:59N 01°17' E 103°59'0 0.0
2018-May-01 11:29N 01°17' E 103°59'0 0.0
2018-May-01 10:47N 01°17' E 103°59'0 0.0
2018-May-01 10:30N 01°17' E 103°59'0 0.0
2018-May-01 09:48N 01°17' E 103°59'0 0.0
2018-May-01 09:29N 01°17' E 103°59'0 0.0
2018-May-01 08:56N 01°17' E 103°59'0 0.0
2018-May-01 07:54N 01°17' E 103°59'0 0.0
2018-May-01 07:23N 01°17' E 103°59'0 0.1
2018-May-01 06:59N 01°17' E 103°59'0 0.1
2018-May-01 06:30N 01°17' E 103°59'0 0.1
2018-May-01 06:00N 01°17' E 103°59'2 3.8
2018-May-01 05:30N 01°16' E 103°58'2 3.6
2018-May-01 04:59N 01°16' E 103°60'4 7.3
2018-May-01 04:30N 01°16' E 104°03'2 3.0
2018-May-01 03:59N 01°16' E 104°05'1 2.9
2018-May-01 03:30N 01°17' E 104°06'2 3.3
2018-May-01 03:00N 01°17' E 104°08'2 3.4
2018-May-01 02:30N 01°17' E 104°10'2 4.2
2018-May-01 01:57N 01°17' E 104°12'2 4.9
2018-May-01 01:29N 01°18' E 104°14'4 8.9
2018-May-01 00:58N 01°18' E 104°19'612.0
2018-May-01 00:29N 01°22' E 104°23'711.9
2018-Apr-30 23:55N 01°26' E 104°29'467 9.2
2018-Apr-28 20:59S 06°17' E 105°31'511.1
2018-Apr-28 20:30S 06°19' E 105°25'611.5
2018-Apr-28 20:00S 06°20' E 105°20'  
Track history (hours):
 
Tides and Currents Weather Stations Pressure Air Temp Water Temp Dewpoint Dewpoint Depression Visibility Wind Speed Wind Dir Waves Ship Positions

Pedhoulas Leader

Last reported at 2018-May-01 21:44 UTC. Time now 2018-Jul-20 08:40 UTC.
Position N 01°24' E 104°27'.
Warning: this ship's position is months out of date.

Length 222 m; draft 13.2 m.

Type: Cargo ship. MMSI: 210982000.

Date/timePositionNaut miles runAvg speedWind from/ knotsBaromVisibWave heightAir tempDewpointWater temp
2018-May-01 21:44N 01°24' E 104°27'313.4
2018-May-01 21:29N 01°22' E 104°25'713.7
2018-May-01 20:59N 01°17' E 104°19'713.2
2018-May-01 20:28N 01°16' E 104°13'714.4
2018-May-01 20:00N 01°15' E 104°06'510.8
2018-May-01 19:30N 01°16' E 104°01'1 2.6
2018-May-01 18:57N 01°17' E 103°60'0 0.0
2018-May-01 18:30N 01°17' E 103°60'0 0.1
2018-May-01 17:56N 01°17' E 103°60'0 0.3
2018-May-01 17:30N 01°17' E 103°60'0 0.3
2018-May-01 16:56N 01°17' E 103°59'0 0.1
2018-May-01 16:20N 01°17' E 103°59'0 0.2
2018-May-01 15:59N 01°17' E 103°59'0 0.1
2018-May-01 15:29N 01°17' E 103°59'0 0.0
2018-May-01 14:53N 01°17' E 103°59'0 0.0
2018-May-01 14:29N 01°17' E 103°59'0 0.0
2018-May-01 13:48N 01°17' E 103°59'0 0.1
2018-May-01 13:30N 01°17' E 103°59'0 0.0
2018-May-01 12:50N 01°17' E 103°59'0 0.0
2018-May-01 12:15N 01°17' E 103°59'0 0.0
2018-May-01 11:59N 01°17' E 103°59'0 0.0
2018-May-01 11:29N 01°17' E 103°59'0 0.0
2018-May-01 10:47N 01°17' E 103°59'0 0.0
2018-May-01 10:30N 01°17' E 103°59'0 0.0
2018-May-01 09:48N 01°17' E 103°59'0 0.0
2018-May-01 09:29N 01°17' E 103°59'0 0.0
2018-May-01 08:56N 01°17' E 103°59'0 0.0
2018-May-01 07:54N 01°17' E 103°59'0 0.0
2018-May-01 07:23N 01°17' E 103°59'0 0.1
2018-May-01 06:59N 01°17' E 103°59'0 0.1
2018-May-01 06:30N 01°17' E 103°59'0 0.1
2018-May-01 06:00N 01°17' E 103°59'2 3.8
2018-May-01 05:30N 01°16' E 103°58'2 3.6
2018-May-01 04:59N 01°16' E 103°60'4 7.3
2018-May-01 04:30N 01°16' E 104°03'2 3.0
2018-May-01 03:59N 01°16' E 104°05'1 2.9
2018-May-01 03:30N 01°17' E 104°06'2 3.3
2018-May-01 03:00N 01°17' E 104°08'2 3.4
2018-May-01 02:30N 01°17' E 104°10'2 4.2
2018-May-01 01:57N 01°17' E 104°12'2 4.9
2018-May-01 01:29N 01°18' E 104°14'4 8.9
2018-May-01 00:58N 01°18' E 104°19'612.0
2018-May-01 00:29N 01°22' E 104°23'711.9
2018-Apr-30 23:55N 01°26' E 104°29'467 9.2
2018-Apr-28 20:59S 06°17' E 105°31'511.1
2018-Apr-28 20:30S 06°19' E 105°25'611.5
2018-Apr-28 20:00S 06°20' E 105°20'  

Dump ship's entire track history